sensor_id;sensor_type;location;lat;lon;timestamp;P1;durP1;ratioP1;P2;durP2;ratioP2
14789;SDS011;7486;51.010;10.366;2022-08-05T00:00:52;4.13;;;2.00;;
14789;SDS011;7486;51.010;10.366;2022-08-05T00:03:18;3.10;;;2.10;;
14789;SDS011;7486;51.010;10.366;2022-08-05T00:05:47;3.05;;;2.00;;
14789;SDS011;7486;51.010;10.366;2022-08-05T00:08:34;2.70;;;2.20;;
14789;SDS011;7486;51.010;10.366;2022-08-05T00:11:03;2.38;;;2.03;;
14789;SDS011;7486;51.010;10.366;2022-08-05T00:13:46;3.95;;;1.90;;
14789;SDS011;7486;51.010;10.366;2022-08-05T00:16:18;3.60;;;1.95;;
14789;SDS011;7486;51.010;10.366;2022-08-05T00:19:02;3.97;;;1.95;;
14789;SDS011;7486;51.010;10.366;2022-08-05T00:21:29;4.18;;;2.10;;
14789;SDS011;7486;51.010;10.366;2022-08-05T00:24:01;2.17;;;1.98;;
14789;SDS011;7486;51.010;10.366;2022-08-05T00:26:36;2.22;;;2.00;;
14789;SDS011;7486;51.010;10.366;2022-08-05T00:29:04;2.70;;;2.03;;
14789;SDS011;7486;51.010;10.366;2022-08-05T00:31:30;5.35;;;2.20;;
14789;SDS011;7486;51.010;10.366;2022-08-05T00:34:17;2.67;;;1.70;;
14789;SDS011;7486;51.010;10.366;2022-08-05T00:37:04;4.20;;;2.13;;
14789;SDS011;7486;51.010;10.366;2022-08-05T00:39:45;2.17;;;1.98;;
14789;SDS011;7486;51.010;10.366;2022-08-05T00:42:31;3.00;;;2.00;;
14789;SDS011;7486;51.010;10.366;2022-08-05T00:44:59;4.25;;;2.13;;
14789;SDS011;7486;51.010;10.366;2022-08-05T00:47:27;4.05;;;2.15;;
14789;SDS011;7486;51.010;10.366;2022-08-05T00:50:14;3.58;;;2.25;;
14789;SDS011;7486;51.010;10.366;2022-08-05T00:52:40;5.15;;;2.00;;
14789;SDS011;7486;51.010;10.366;2022-08-05T00:55:10;3.90;;;2.40;;
14789;SDS011;7486;51.010;10.366;2022-08-05T00:57:37;4.63;;;2.35;;
14789;SDS011;7486;51.010;10.366;2022-08-05T01:00:24;3.92;;;1.85;;
14789;SDS011;7486;51.010;10.366;2022-08-05T01:02:52;2.33;;;2.13;;
14789;SDS011;7486;51.010;10.366;2022-08-05T01:05:20;3.30;;;1.95;;
14789;SDS011;7486;51.010;10.366;2022-08-05T01:07:47;2.60;;;2.10;;
14789;SDS011;7486;51.010;10.366;2022-08-05T01:10:39;5.43;;;2.10;;
14789;SDS011;7486;51.010;10.366;2022-08-05T01:13:42;3.08;;;2.00;;
14789;SDS011;7486;51.010;10.366;2022-08-05T01:16:29;2.13;;;1.90;;
14789;SDS011;7486;51.010;10.366;2022-08-05T01:22:22;4.63;;;2.10;;
14789;SDS011;7486;51.010;10.366;2022-08-05T01:30:58;4.97;;;2.38;;
14789;SDS011;7486;51.010;10.366;2022-08-05T01:33:34;3.75;;;1.90;;
14789;SDS011;7486;51.010;10.366;2022-08-05T01:36:07;2.88;;;2.20;;
14789;SDS011;7486;51.010;10.366;2022-08-05T01:38:42;4.20;;;2.33;;
14789;SDS011;7486;51.010;10.366;2022-08-05T01:41:12;4.30;;;2.20;;
14789;SDS011;7486;51.010;10.366;2022-08-05T01:43:46;1.80;;;1.70;;
14789;SDS011;7486;51.010;10.366;2022-08-05T01:46:15;2.53;;;2.10;;
14789;SDS011;7486;51.010;10.366;2022-08-05T01:49:02;2.40;;;2.20;;
14789;SDS011;7486;51.010;10.366;2022-08-05T01:51:50;3.22;;;2.15;;
14789;SDS011;7486;51.010;10.366;2022-08-05T01:54:21;2.13;;;1.90;;
14789;SDS011;7486;51.010;10.366;2022-08-05T01:56:52;2.80;;;1.83;;
14789;SDS011;7486;51.010;10.366;2022-08-05T01:59:42;2.75;;;1.83;;
14789;SDS011;7486;51.010;10.366;2022-08-05T02:02:12;2.40;;;1.80;;
14789;SDS011;7486;51.010;10.366;2022-08-05T02:04:42;2.85;;;2.08;;
14789;SDS011;7486;51.010;10.366;2022-08-05T02:07:15;2.55;;;2.10;;
14789;SDS011;7486;51.010;10.366;2022-08-05T02:09:48;1.85;;;1.70;;
14789;SDS011;7486;51.010;10.366;2022-08-05T02:12:24;3.38;;;1.95;;
14789;SDS011;7486;51.010;10.366;2022-08-05T02:15:05;3.42;;;2.10;;
14789;SDS011;7486;51.010;10.366;2022-08-05T02:17:40;2.80;;;1.98;;
14789;SDS011;7486;51.010;10.366;2022-08-05T02:20:38;2.20;;;2.00;;
14789;SDS011;7486;51.010;10.366;2022-08-05T02:23:12;3.67;;;1.85;;
14789;SDS011;7486;51.010;10.366;2022-08-05T02:25:40;2.78;;;2.08;;
14789;SDS011;7486;51.010;10.366;2022-08-05T02:28:18;3.50;;;1.85;;
14789;SDS011;7486;51.010;10.366;2022-08-05T02:31:07;4.13;;;1.77;;
14789;SDS011;7486;51.010;10.366;2022-08-05T02:33:41;3.13;;;1.77;;
14789;SDS011;7486;51.010;10.366;2022-08-05T02:36:15;3.85;;;2.08;;
14789;SDS011;7486;51.010;10.366;2022-08-05T02:38:44;4.30;;;1.95;;
14789;SDS011;7486;51.010;10.366;2022-08-05T02:41:19;1.85;;;1.75;;
14789;SDS011;7486;51.010;10.366;2022-08-05T02:43:49;3.15;;;2.17;;
14789;SDS011;7486;51.010;10.366;2022-08-05T02:46:37;2.70;;;2.15;;
14789;SDS011;7486;51.010;10.366;2022-08-05T02:49:24;3.45;;;2.10;;
14789;SDS011;7486;51.010;10.366;2022-08-05T02:52:01;2.20;;;1.73;;
14789;SDS011;7486;51.010;10.366;2022-08-05T02:54:31;2.15;;;1.95;;
14789;SDS011;7486;51.010;10.366;2022-08-05T02:57:03;7.10;;;2.50;;
14789;SDS011;7486;51.010;10.366;2022-08-05T02:59:53;3.60;;;2.60;;
14789;SDS011;7486;51.010;10.366;2022-08-05T03:02:23;5.35;;;2.47;;
14789;SDS011;7486;51.010;10.366;2022-08-05T03:04:54;5.85;;;2.17;;
14789;SDS011;7486;51.010;10.366;2022-08-05T03:07:23;3.67;;;2.33;;
14789;SDS011;7486;51.010;10.366;2022-08-05T03:10:13;2.90;;;2.50;;
14789;SDS011;7486;51.010;10.366;2022-08-05T03:12:47;2.15;;;1.95;;
14789;SDS011;7486;51.010;10.366;2022-08-05T03:15:17;3.40;;;2.00;;
14789;SDS011;7486;51.010;10.366;2022-08-05T03:17:45;3.60;;;2.30;;
14789;SDS011;7486;51.010;10.366;2022-08-05T03:20:12;3.13;;;2.30;;
14789;SDS011;7486;51.010;10.366;2022-08-05T03:22:39;2.30;;;2.10;;
14789;SDS011;7486;51.010;10.366;2022-08-05T03:25:16;2.65;;;2.20;;
14789;SDS011;7486;51.010;10.366;2022-08-05T03:28:00;5.63;;;2.30;;
14789;SDS011;7486;51.010;10.366;2022-08-05T03:30:29;3.28;;;2.72;;
14789;SDS011;7486;51.010;10.366;2022-08-05T03:33:00;3.42;;;2.13;;
14789;SDS011;7486;51.010;10.366;2022-08-05T03:35:28;6.10;;;2.90;;
14789;SDS011;7486;51.010;10.366;2022-08-05T03:37:59;3.70;;;2.78;;
14789;SDS011;7486;51.010;10.366;2022-08-05T03:40:25;4.97;;;3.00;;
14789;SDS011;7486;51.010;10.366;2022-08-05T03:42:58;3.55;;;3.22;;
14789;SDS011;7486;51.010;10.366;2022-08-05T03:45:45;4.15;;;3.38;;
14789;SDS011;7486;51.010;10.366;2022-08-05T03:48:27;4.65;;;3.42;;
14789;SDS011;7486;51.010;10.366;2022-08-05T03:57:09;5.85;;;4.75;;
14789;SDS011;7486;51.010;10.366;2022-08-05T04:00:07;5.63;;;4.55;;
14789;SDS011;7486;51.010;10.366;2022-08-05T04:02:41;5.13;;;4.63;;
14789;SDS011;7486;51.010;10.366;2022-08-05T04:05:33;5.55;;;4.47;;
14789;SDS011;7486;51.010;10.366;2022-08-05T04:08:06;5.78;;;3.63;;
14789;SDS011;7486;51.010;10.366;2022-08-05T04:10:55;6.57;;;3.53;;
14789;SDS011;7486;51.010;10.366;2022-08-05T04:13:23;4.05;;;3.47;;
14789;SDS011;7486;51.010;10.366;2022-08-05T04:16:11;4.25;;;3.20;;
14789;SDS011;7486;51.010;10.366;2022-08-05T04:18:39;5.00;;;2.83;;
14789;SDS011;7486;51.010;10.366;2022-08-05T04:21:07;3.17;;;2.60;;
14789;SDS011;7486;51.010;10.366;2022-08-05T04:23:36;3.40;;;2.95;;
14789;SDS011;7486;51.010;10.366;2022-08-05T04:26:24;5.50;;;3.10;;
14789;SDS011;7486;51.010;10.366;2022-08-05T04:28:57;3.72;;;2.83;;
14789;SDS011;7486;51.010;10.366;2022-08-05T04:31:25;3.45;;;3.13;;
14789;SDS011;7486;51.010;10.366;2022-08-05T04:34:04;3.95;;;3.00;;
14789;SDS011;7486;51.010;10.366;2022-08-05T04:36:50;3.45;;;2.50;;
14789;SDS011;7486;51.010;10.366;2022-08-05T04:39:17;3.00;;;2.70;;
14789;SDS011;7486;51.010;10.366;2022-08-05T04:41:45;4.78;;;2.53;;
14789;SDS011;7486;51.010;10.366;2022-08-05T04:44:13;3.90;;;2.60;;
14789;SDS011;7486;51.010;10.366;2022-08-05T04:46:49;4.38;;;2.65;;
14789;SDS011;7486;51.010;10.366;2022-08-05T04:49:18;3.30;;;2.97;;
14789;SDS011;7486;51.010;10.366;2022-08-05T04:52:03;3.85;;;3.00;;
14789;SDS011;7486;51.010;10.366;2022-08-05T04:54:32;6.25;;;3.40;;
14789;SDS011;7486;51.010;10.366;2022-08-05T04:56:59;4.32;;;3.50;;
14789;SDS011;7486;51.010;10.366;2022-08-05T04:59:26;6.57;;;3.40;;
14789;SDS011;7486;51.010;10.366;2022-08-05T05:02:06;3.20;;;2.90;;
14789;SDS011;7486;51.010;10.366;2022-08-05T05:04:53;3.95;;;3.22;;
14789;SDS011;7486;51.010;10.366;2022-08-05T05:07:40;6.13;;;3.50;;
14789;SDS011;7486;51.010;10.366;2022-08-05T05:10:18;3.40;;;2.83;;
14789;SDS011;7486;51.010;10.366;2022-08-05T05:12:45;3.75;;;2.80;;
14789;SDS011;7486;51.010;10.366;2022-08-05T05:15:16;4.70;;;3.20;;
14789;SDS011;7486;51.010;10.366;2022-08-05T05:18:02;4.22;;;2.70;;
14789;SDS011;7486;51.010;10.366;2022-08-05T05:20:30;6.63;;;3.03;;
14789;SDS011;7486;51.010;10.366;2022-08-05T05:22:58;3.72;;;2.80;;
14789;SDS011;7486;51.010;10.366;2022-08-05T05:25:44;3.55;;;2.85;;
14789;SDS011;7486;51.010;10.366;2022-08-05T05:28:13;5.60;;;2.60;;
14789;SDS011;7486;51.010;10.366;2022-08-05T05:30:41;5.05;;;2.70;;
14789;SDS011;7486;51.010;10.366;2022-08-05T05:33:07;3.20;;;2.70;;
14789;SDS011;7486;51.010;10.366;2022-08-05T05:35:43;4.43;;;3.10;;
14789;SDS011;7486;51.010;10.366;2022-08-05T05:38:11;2.67;;;2.40;;
14789;SDS011;7486;51.010;10.366;2022-08-05T05:40:40;3.50;;;2.90;;
14789;SDS011;7486;51.010;10.366;2022-08-05T05:43:17;2.72;;;2.50;;
14789;SDS011;7486;51.010;10.366;2022-08-05T05:46:05;3.42;;;2.63;;
14789;SDS011;7486;51.010;10.366;2022-08-05T05:48:41;3.47;;;3.17;;
14789;SDS011;7486;51.010;10.366;2022-08-05T05:51:09;5.55;;;3.10;;
14789;SDS011;7486;51.010;10.366;2022-08-05T05:53:41;4.70;;;2.60;;
14789;SDS011;7486;51.010;10.366;2022-08-05T05:56:24;3.17;;;2.85;;
14789;SDS011;7486;51.010;10.366;2022-08-05T05:58:59;4.68;;;4.00;;
14789;SDS011;7486;51.010;10.366;2022-08-05T06:01:35;5.55;;;3.60;;
14789;SDS011;7486;51.010;10.366;2022-08-05T06:04:09;6.35;;;4.25;;
14789;SDS011;7486;51.010;10.366;2022-08-05T06:06:42;5.78;;;3.72;;
14789;SDS011;7486;51.010;10.366;2022-08-05T06:09:14;6.25;;;3.92;;
14789;SDS011;7486;51.010;10.366;2022-08-05T06:11:50;6.30;;;3.75;;
14789;SDS011;7486;51.010;10.366;2022-08-05T06:14:26;5.40;;;3.42;;
14789;SDS011;7486;51.010;10.366;2022-08-05T06:16:54;4.80;;;3.47;;
14789;SDS011;7486;51.010;10.366;2022-08-05T06:19:22;5.07;;;3.78;;
14789;SDS011;7486;51.010;10.366;2022-08-05T06:22:00;4.05;;;3.42;;
14789;SDS011;7486;51.010;10.366;2022-08-05T06:24:32;5.30;;;3.80;;
14789;SDS011;7486;51.010;10.366;2022-08-05T06:27:00;7.03;;;3.58;;
14789;SDS011;7486;51.010;10.366;2022-08-05T06:29:29;7.00;;;4.22;;
14789;SDS011;7486;51.010;10.366;2022-08-05T06:32:16;6.57;;;3.75;;
14789;SDS011;7486;51.010;10.366;2022-08-05T06:34:52;4.22;;;3.05;;
14789;SDS011;7486;51.010;10.366;2022-08-05T06:37:23;5.15;;;3.20;;
14789;SDS011;7486;51.010;10.366;2022-08-05T06:40:11;3.78;;;3.47;;
14789;SDS011;7486;51.010;10.366;2022-08-05T06:42:39;3.67;;;2.85;;
14789;SDS011;7486;51.010;10.366;2022-08-05T06:45:06;4.07;;;3.40;;
14789;SDS011;7486;51.010;10.366;2022-08-05T06:47:35;3.83;;;3.20;;
14789;SDS011;7486;51.010;10.366;2022-08-05T06:50:22;4.13;;;3.17;;
14789;SDS011;7486;51.010;10.366;2022-08-05T06:52:49;4.15;;;3.03;;
14789;SDS011;7486;51.010;10.366;2022-08-05T06:55:29;4.65;;;3.40;;
14789;SDS011;7486;51.010;10.366;2022-08-05T06:58:02;4.78;;;3.20;;
14789;SDS011;7486;51.010;10.366;2022-08-05T07:00:49;4.95;;;3.45;;
14789;SDS011;7486;51.010;10.366;2022-08-05T07:03:16;4.80;;;3.17;;
14789;SDS011;7486;51.010;10.366;2022-08-05T07:05:43;5.28;;;3.55;;
14789;SDS011;7486;51.010;10.366;2022-08-05T07:08:11;3.60;;;3.13;;
14789;SDS011;7486;51.010;10.366;2022-08-05T07:10:38;4.13;;;3.20;;
14789;SDS011;7486;51.010;10.366;2022-08-05T07:13:18;3.80;;;3.40;;
14789;SDS011;7486;51.010;10.366;2022-08-05T07:16:07;6.20;;;3.83;;
14789;SDS011;7486;51.010;10.366;2022-08-05T07:18:37;3.72;;;3.30;;
14789;SDS011;7486;51.010;10.366;2022-08-05T07:21:13;4.07;;;3.70;;
14789;SDS011;7486;51.010;10.366;2022-08-05T07:23:51;3.75;;;3.45;;
14789;SDS011;7486;51.010;10.366;2022-08-05T07:26:17;4.72;;;2.95;;
14789;SDS011;7486;51.010;10.366;2022-08-05T07:28:50;3.30;;;3.00;;
14789;SDS011;7486;51.010;10.366;2022-08-05T07:31:18;4.43;;;3.15;;
14789;SDS011;7486;51.010;10.366;2022-08-05T07:34:05;7.47;;;3.88;;
14789;SDS011;7486;51.010;10.366;2022-08-05T07:36:33;4.65;;;3.50;;
14789;SDS011;7486;51.010;10.366;2022-08-05T07:39:00;3.72;;;3.38;;
14789;SDS011;7486;51.010;10.366;2022-08-05T07:41:50;4.40;;;3.42;;
14789;SDS011;7486;51.010;10.366;2022-08-05T07:44:36;5.32;;;3.45;;
14789;SDS011;7486;51.010;10.366;2022-08-05T07:47:04;4.10;;;3.70;;
14789;SDS011;7486;51.010;10.366;2022-08-05T07:49:35;4.45;;;3.83;;
14789;SDS011;7486;51.010;10.366;2022-08-05T07:52:19;4.68;;;3.80;;
14789;SDS011;7486;51.010;10.366;2022-08-05T07:54:49;4.35;;;3.30;;
14789;SDS011;7486;51.010;10.366;2022-08-05T07:57:18;4.40;;;3.58;;
14789;SDS011;7486;51.010;10.366;2022-08-05T08:00:05;5.25;;;3.03;;
14789;SDS011;7486;51.010;10.366;2022-08-05T08:02:39;3.20;;;2.88;;
14789;SDS011;7486;51.010;10.366;2022-08-05T08:05:26;4.22;;;3.10;;
14789;SDS011;7486;51.010;10.366;2022-08-05T08:07:53;3.72;;;2.50;;
14789;SDS011;7486;51.010;10.366;2022-08-05T08:10:26;2.65;;;2.40;;
14789;SDS011;7486;51.010;10.366;2022-08-05T08:12:52;5.10;;;2.97;;
14789;SDS011;7486;51.010;10.366;2022-08-05T08:15:23;3.42;;;2.28;;
14789;SDS011;7486;51.010;10.366;2022-08-05T08:18:10;2.45;;;2.13;;
14789;SDS011;7486;51.010;10.366;2022-08-05T08:20:40;3.05;;;2.20;;
14789;SDS011;7486;51.010;10.366;2022-08-05T08:23:26;2.38;;;2.10;;
14789;SDS011;7486;51.010;10.366;2022-08-05T08:26:13;3.63;;;2.30;;
14789;SDS011;7486;51.010;10.366;2022-08-05T08:28:40;3.35;;;2.15;;
14789;SDS011;7486;51.010;10.366;2022-08-05T08:31:26;2.47;;;2.15;;
14789;SDS011;7486;51.010;10.366;2022-08-05T08:33:58;3.38;;;2.40;;
14789;SDS011;7486;51.010;10.366;2022-08-05T08:36:25;4.38;;;2.40;;
14789;SDS011;7486;51.010;10.366;2022-08-05T08:39:07;2.83;;;2.45;;
14789;SDS011;7486;51.010;10.366;2022-08-05T08:41:42;3.10;;;2.40;;
14789;SDS011;7486;51.010;10.366;2022-08-05T08:44:25;2.63;;;2.33;;
14789;SDS011;7486;51.010;10.366;2022-08-05T08:47:15;3.58;;;2.38;;
14789;SDS011;7486;51.010;10.366;2022-08-05T08:50:08;3.15;;;2.42;;
14789;SDS011;7486;51.010;10.366;2022-08-05T08:53:03;2.60;;;2.28;;
14789;SDS011;7486;51.010;10.366;2022-08-05T08:55:37;2.90;;;2.40;;
14789;SDS011;7486;51.010;10.366;2022-08-05T08:58:25;2.75;;;2.53;;
14789;SDS011;7486;51.010;10.366;2022-08-05T09:01:12;3.05;;;2.50;;
14789;SDS011;7486;51.010;10.366;2022-08-05T09:03:43;2.75;;;2.50;;
14789;SDS011;7486;51.010;10.366;2022-08-05T09:06:12;3.42;;;2.65;;
14789;SDS011;7486;51.010;10.366;2022-08-05T09:08:45;3.40;;;2.53;;
14789;SDS011;7486;51.010;10.366;2022-08-05T09:11:12;2.75;;;2.53;;
14789;SDS011;7486;51.010;10.366;2022-08-05T09:13:40;3.70;;;2.55;;
14789;SDS011;7486;51.010;10.366;2022-08-05T09:16:27;2.78;;;2.58;;
14789;SDS011;7486;51.010;10.366;2022-08-05T09:18:54;2.78;;;2.58;;
14789;SDS011;7486;51.010;10.366;2022-08-05T09:21:24;2.78;;;2.58;;
14789;SDS011;7486;51.010;10.366;2022-08-05T09:24:11;3.70;;;2.22;;
14789;SDS011;7486;51.010;10.366;2022-08-05T09:26:40;2.65;;;2.42;;
14789;SDS011;7486;51.010;10.366;2022-08-05T09:29:10;3.15;;;2.38;;
14789;SDS011;7486;51.010;10.366;2022-08-05T09:31:42;2.33;;;2.13;;
14789;SDS011;7486;51.010;10.366;2022-08-05T09:34:48;2.67;;;2.47;;
14789;SDS011;7486;51.010;10.366;2022-08-05T09:37:18;2.72;;;2.25;;
14789;SDS011;7486;51.010;10.366;2022-08-05T09:40:05;2.78;;;2.25;;
14789;SDS011;7486;51.010;10.366;2022-08-05T09:42:42;3.05;;;2.30;;
14789;SDS011;7486;51.010;10.366;2022-08-05T09:45:13;3.13;;;2.20;;
14789;SDS011;7486;51.010;10.366;2022-08-05T09:48:01;2.67;;;2.25;;
14789;SDS011;7486;51.010;10.366;2022-08-05T09:51:05;2.63;;;2.40;;
14789;SDS011;7486;51.010;10.366;2022-08-05T09:53:47;4.53;;;2.42;;
14789;SDS011;7486;51.010;10.366;2022-08-05T09:56:28;2.42;;;2.22;;
14789;SDS011;7486;51.010;10.366;2022-08-05T10:01:29;3.55;;;2.50;;
14789;SDS011;7486;51.010;10.366;2022-08-05T10:06:36;3.33;;;2.13;;
14789;SDS011;7486;51.010;10.366;2022-08-05T10:11:57;2.63;;;2.40;;
14789;SDS011;7486;51.010;10.366;2022-08-05T10:14:55;2.85;;;2.55;;
14789;SDS011;7486;51.010;10.366;2022-08-05T10:17:43;1.90;;;1.80;;
14789;SDS011;7486;51.010;10.366;2022-08-05T10:20:22;2.13;;;1.92;;
14789;SDS011;7486;51.010;10.366;2022-08-05T10:22:50;2.30;;;1.85;;
14789;SDS011;7486;51.010;10.366;2022-08-05T10:25:18;2.75;;;2.00;;
14789;SDS011;7486;51.010;10.366;2022-08-05T10:27:46;2.55;;;2.03;;
14789;SDS011;7486;51.010;10.366;2022-08-05T10:30:34;2.10;;;1.90;;
14789;SDS011;7486;51.010;10.366;2022-08-05T10:33:22;2.30;;;2.10;;
14789;SDS011;7486;51.010;10.366;2022-08-05T10:35:54;2.40;;;2.20;;
14789;SDS011;7486;51.010;10.366;2022-08-05T10:38:26;3.80;;;2.05;;
14789;SDS011;7486;51.010;10.366;2022-08-05T10:44:12;2.47;;;2.15;;
14789;SDS011;7486;51.010;10.366;2022-08-05T10:46:47;2.92;;;2.35;;
14789;SDS011;7486;51.010;10.366;2022-08-05T10:49:20;3.35;;;2.47;;
14789;SDS011;7486;51.010;10.366;2022-08-05T10:51:53;3.75;;;2.30;;
14789;SDS011;7486;51.010;10.366;2022-08-05T10:54:44;3.58;;;2.50;;
14789;SDS011;7486;51.010;10.366;2022-08-05T10:57:25;2.88;;;2.50;;
14789;SDS011;7486;51.010;10.366;2022-08-05T11:00:08;3.20;;;2.17;;
14789;SDS011;7486;51.010;10.366;2022-08-05T11:03:07;2.53;;;2.20;;
14789;SDS011;7486;51.010;10.366;2022-08-05T11:17:47;3.33;;;2.28;;
14789;SDS011;7486;51.010;10.366;2022-08-05T11:20:35;2.88;;;2.50;;
14789;SDS011;7486;51.010;10.366;2022-08-05T11:26:09;2.72;;;2.30;;
14789;SDS011;7486;51.010;10.366;2022-08-05T11:28:59;2.70;;;2.40;;
14789;SDS011;7486;51.010;10.366;2022-08-05T11:31:43;2.55;;;2.35;;
14789;SDS011;7486;51.010;10.366;2022-08-05T11:34:36;2.60;;;2.40;;
14789;SDS011;7486;51.010;10.366;2022-08-05T11:37:04;2.65;;;2.45;;
14789;SDS011;7486;51.010;10.366;2022-08-05T11:39:51;2.45;;;2.22;;
14789;SDS011;7486;51.010;10.366;2022-08-05T11:42:30;3.20;;;2.35;;
14789;SDS011;7486;51.010;10.366;2022-08-05T11:45:06;2.42;;;2.22;;
14789;SDS011;7486;51.010;10.366;2022-08-05T11:47:48;3.28;;;2.20;;
14789;SDS011;7486;51.010;10.366;2022-08-05T11:50:20;4.43;;;2.65;;
14789;SDS011;7486;51.010;10.366;2022-08-05T11:52:47;2.20;;;2.00;;
14789;SDS011;7486;51.010;10.366;2022-08-05T11:55:18;2.58;;;2.38;;
14789;SDS011;7486;51.010;10.366;2022-08-05T11:57:45;2.40;;;2.17;;
14789;SDS011;7486;51.010;10.366;2022-08-05T12:00:32;3.08;;;2.25;;
14789;SDS011;7486;51.010;10.366;2022-08-05T12:03:14;2.40;;;2.20;;
14789;SDS011;7486;51.010;10.366;2022-08-05T12:06:03;4.35;;;2.20;;
14789;SDS011;7486;51.010;10.366;2022-08-05T12:08:45;2.47;;;2.28;;
14789;SDS011;7486;51.010;10.366;2022-08-05T12:11:21;2.50;;;2.30;;
14789;SDS011;7486;51.010;10.366;2022-08-05T12:16:33;4.18;;;2.00;;
14789;SDS011;7486;51.010;10.366;2022-08-05T12:19:07;2.20;;;2.00;;
14789;SDS011;7486;51.010;10.366;2022-08-05T12:21:55;2.17;;;1.90;;
14789;SDS011;7486;51.010;10.366;2022-08-05T12:24:22;2.05;;;1.92;;
14789;SDS011;7486;51.010;10.366;2022-08-05T12:26:50;2.47;;;2.13;;
14789;SDS011;7486;51.010;10.366;2022-08-05T12:29:19;3.47;;;1.92;;
14789;SDS011;7486;51.010;10.366;2022-08-05T12:31:55;3.45;;;2.20;;
14789;SDS011;7486;51.010;10.366;2022-08-05T12:34:28;3.10;;;2.15;;
14789;SDS011;7486;51.010;10.366;2022-08-05T12:36:59;2.30;;;2.10;;
14789;SDS011;7486;51.010;10.366;2022-08-05T12:39:28;2.25;;;2.05;;
14789;SDS011;7486;51.010;10.366;2022-08-05T12:42:10;2.42;;;2.17;;
14789;SDS011;7486;51.010;10.366;2022-08-05T12:44:41;2.97;;;2.10;;
14789;SDS011;7486;51.010;10.366;2022-08-05T12:47:10;2.30;;;2.10;;
14789;SDS011;7486;51.010;10.366;2022-08-05T12:49:39;3.08;;;2.10;;
14789;SDS011;7486;51.010;10.366;2022-08-05T12:52:30;2.20;;;2.00;;
14789;SDS011;7486;51.010;10.366;2022-08-05T12:55:18;2.83;;;2.33;;
14789;SDS011;7486;51.010;10.366;2022-08-05T12:57:49;2.47;;;2.10;;
14789;SDS011;7486;51.010;10.366;2022-08-05T13:00:43;2.70;;;2.10;;
14789;SDS011;7486;51.010;10.366;2022-08-05T13:03:35;3.22;;;2.40;;
14789;SDS011;7486;51.010;10.366;2022-08-05T13:06:14;3.38;;;2.28;;
14789;SDS011;7486;51.010;10.366;2022-08-05T13:08:43;3.35;;;2.28;;
14789;SDS011;7486;51.010;10.366;2022-08-05T13:11:22;5.32;;;2.38;;
14789;SDS011;7486;51.010;10.366;2022-08-05T13:14:14;2.70;;;2.50;;
14789;SDS011;7486;51.010;10.366;2022-08-05T13:16:52;2.55;;;2.30;;
14789;SDS011;7486;51.010;10.366;2022-08-05T13:19:22;3.22;;;2.47;;
14789;SDS011;7486;51.010;10.366;2022-08-05T13:21:51;2.50;;;2.30;;
14789;SDS011;7486;51.010;10.366;2022-08-05T13:24:22;2.75;;;2.25;;
14789;SDS011;7486;51.010;10.366;2022-08-05T13:27:09;3.95;;;2.30;;
14789;SDS011;7486;51.010;10.366;2022-08-05T13:29:36;2.60;;;2.40;;
14789;SDS011;7486;51.010;10.366;2022-08-05T13:32:03;2.83;;;2.33;;
14789;SDS011;7486;51.010;10.366;2022-08-05T13:34:31;3.00;;;2.60;;
14789;SDS011;7486;51.010;10.366;2022-08-05T13:36:58;3.33;;;2.60;;
14789;SDS011;7486;51.010;10.366;2022-08-05T13:39:24;2.65;;;2.45;;
14789;SDS011;7486;51.010;10.366;2022-08-05T13:42:11;2.75;;;2.30;;
14789;SDS011;7486;51.010;10.366;2022-08-05T13:44:40;2.80;;;2.60;;
14789;SDS011;7486;51.010;10.366;2022-08-05T13:47:11;3.03;;;2.72;;
14789;SDS011;7486;51.010;10.366;2022-08-05T13:49:59;5.18;;;2.80;;
14789;SDS011;7486;51.010;10.366;2022-08-05T13:52:30;3.22;;;2.63;;
14789;SDS011;7486;51.010;10.366;2022-08-05T13:55:00;3.05;;;2.78;;
14789;SDS011;7486;51.010;10.366;2022-08-05T13:57:32;5.57;;;3.55;;
14789;SDS011;7486;51.010;10.366;2022-08-05T14:00:18;5.13;;;4.18;;
14789;SDS011;7486;51.010;10.366;2022-08-05T14:02:54;6.55;;;4.95;;
14789;SDS011;7486;51.010;10.366;2022-08-05T14:05:22;5.47;;;4.95;;
14789;SDS011;7486;51.010;10.366;2022-08-05T14:08:08;8.43;;;5.85;;
14789;SDS011;7486;51.010;10.366;2022-08-05T14:10:47;6.78;;;5.90;;
14789;SDS011;7486;51.010;10.366;2022-08-05T14:13:13;8.73;;;5.63;;
14789;SDS011;7486;51.010;10.366;2022-08-05T14:15:41;7.30;;;6.57;;
14789;SDS011;7486;51.010;10.366;2022-08-05T14:18:28;7.25;;;5.70;;
14789;SDS011;7486;51.010;10.366;2022-08-05T14:20:54;6.50;;;5.82;;
14789;SDS011;7486;51.010;10.366;2022-08-05T14:23:21;7.15;;;6.45;;
14789;SDS011;7486;51.010;10.366;2022-08-05T14:25:52;7.75;;;6.95;;
14789;SDS011;7486;51.010;10.366;2022-08-05T14:28:24;8.60;;;7.15;;
14789;SDS011;7486;51.010;10.366;2022-08-05T14:30:55;9.48;;;7.43;;
14789;SDS011;7486;51.010;10.366;2022-08-05T14:33:22;8.55;;;7.65;;
14789;SDS011;7486;51.010;10.366;2022-08-05T14:35:49;8.70;;;7.50;;
14789;SDS011;7486;51.010;10.366;2022-08-05T14:38:19;8.43;;;7.53;;
14789;SDS011;7486;51.010;10.366;2022-08-05T14:41:00;8.82;;;7.43;;
14789;SDS011;7486;51.010;10.366;2022-08-05T14:43:33;8.32;;;7.38;;
14789;SDS011;7486;51.010;10.366;2022-08-05T14:46:48;8.60;;;7.28;;
14789;SDS011;7486;51.010;10.366;2022-08-05T14:49:14;8.57;;;7.32;;
14789;SDS011;7486;51.010;10.366;2022-08-05T14:51:41;7.65;;;6.85;;
14789;SDS011;7486;51.010;10.366;2022-08-05T14:54:10;8.02;;;7.22;;
14789;SDS011;7486;51.010;10.366;2022-08-05T14:56:57;8.07;;;6.88;;
14789;SDS011;7486;51.010;10.366;2022-08-05T14:59:25;7.32;;;6.60;;
14789;SDS011;7486;51.010;10.366;2022-08-05T15:02:00;6.22;;;5.63;;
14789;SDS011;7486;51.010;10.366;2022-08-05T15:04:28;6.88;;;5.72;;
14789;SDS011;7486;51.010;10.366;2022-08-05T15:06:55;6.20;;;5.40;;
14789;SDS011;7486;51.010;10.366;2022-08-05T15:09:22;5.50;;;5.00;;
14789;SDS011;7486;51.010;10.366;2022-08-05T15:12:09;6.20;;;4.47;;
14789;SDS011;7486;51.010;10.366;2022-08-05T15:14:43;5.65;;;4.38;;
14789;SDS011;7486;51.010;10.366;2022-08-05T15:17:15;5.13;;;3.90;;
14789;SDS011;7486;51.010;10.366;2022-08-05T15:20:04;3.85;;;3.45;;
14789;SDS011;7486;51.010;10.366;2022-08-05T15:22:35;4.35;;;3.40;;
14789;SDS011;7486;51.010;10.366;2022-08-05T15:25:02;3.42;;;3.13;;
14789;SDS011;7486;51.010;10.366;2022-08-05T15:27:39;3.88;;;2.97;;
14789;SDS011;7486;51.010;10.366;2022-08-05T15:30:17;5.50;;;3.08;;
14789;SDS011;7486;51.010;10.366;2022-08-05T15:32:45;3.63;;;2.95;;
14789;SDS011;7486;51.010;10.366;2022-08-05T15:35:11;3.60;;;2.70;;
14789;SDS011;7486;51.010;10.366;2022-08-05T15:37:40;3.72;;;2.30;;
14789;SDS011;7486;51.010;10.366;2022-08-05T15:40:27;3.22;;;2.55;;
14789;SDS011;7486;51.010;10.366;2022-08-05T15:43:14;4.28;;;3.00;;
14789;SDS011;7486;51.010;10.366;2022-08-05T15:45:46;3.80;;;2.70;;
14789;SDS011;7486;51.010;10.366;2022-08-05T15:48:26;3.88;;;2.78;;
14789;SDS011;7486;51.010;10.366;2022-08-05T15:50:53;4.32;;;2.55;;
14789;SDS011;7486;51.010;10.366;2022-08-05T15:53:21;3.22;;;2.47;;
14789;SDS011;7486;51.010;10.366;2022-08-05T15:55:52;3.65;;;2.60;;
14789;SDS011;7486;51.010;10.366;2022-08-05T15:58:30;3.70;;;2.42;;
14789;SDS011;7486;51.010;10.366;2022-08-05T16:01:01;3.03;;;2.35;;
14789;SDS011;7486;51.010;10.366;2022-08-05T16:03:43;2.83;;;2.13;;
14789;SDS011;7486;51.010;10.366;2022-08-05T16:06:14;3.70;;;2.25;;
14789;SDS011;7486;51.010;10.366;2022-08-05T16:08:45;4.47;;;2.65;;
14789;SDS011;7486;51.010;10.366;2022-08-05T16:11:15;3.35;;;2.22;;
14789;SDS011;7486;51.010;10.366;2022-08-05T16:13:42;3.42;;;2.38;;
14789;SDS011;7486;51.010;10.366;2022-08-05T16:16:09;5.00;;;3.80;;
14789;SDS011;7486;51.010;10.366;2022-08-05T16:18:36;6.63;;;5.35;;
14789;SDS011;7486;51.010;10.366;2022-08-05T16:21:18;4.82;;;4.25;;
14789;SDS011;7486;51.010;10.366;2022-08-05T16:24:05;3.80;;;3.42;;